Fort Mitchell, AL

9:27 AM CST on February 19, 2017 (GMT -0600)
Lawson Army Air Field

Weather History for KLSF - November, 2013

Change the Weather History Date:

Sunday, November 3, 2013

  Actual Average Record
Temperature  
Mean Temperature 52 °F -  
Max Temperature 68 °F 71 °F 87 °F (2016)
Min Temperature 37 °F 45 °F 30 °F (2014)
Degree Days  
Heating Degree Days 12    
Growing Degree Days 2 (Base 50)    
Moisture  
Dew Point 41 °F    
Average Humidity 92    
Maximum Humidity 100    
Minimum Humidity 35    
Precipitation  
Precipitation 0.00 in - - ()
Sea Level Pressure  
Sea Level Pressure 30.17 in    
Wind  
Wind Speed 1 mph (SE)    
Max Wind Speed 5 mph    
Max Gust Speed -    
Visibility 4 miles    
Events Fog    
Averages and records for this station are not official NWS values.
T = Trace of Precipitation, MM = Missing Value Source: NWS Daily Summary

Daily Weather History Graph

Daily Weather History Graph

Search for Another Location

Airport or City:

Trip Planner

Search our weather history database for the weather conditions in past years. The results will help you decide how hot, cold, wet, or windy it might be!

Date:

Astronomy

Nov. 03, 2013 Rise Set
Actual Time 6:58 AM EST 5:47 PM EST
Civil Twilight 6:33 AM EST 6:13 PM EST
Nautical Twilight 6:04 AM EST 6:42 PM EST
Astronomical Twilight 5:35 AM EST 7:10 PM EST
Moon 7:01 AM EST (11/3) 6:03 PM EST (11/3)
Length of Visible Light 11h 39m
Length of Day
10h 48m
New Moon, 0% of the Moon is Illuminated
Nov 3
New Moon
Nov 10
First Quarter
Nov 17
Full
Nov 25
Last Quarter
Dec 2
New

Hourly Weather History & Observations

Time (EST) Temp. Dew Point Humidity Pressure Visibility Wind Dir Wind Speed Gust Speed Precip Events Conditions
12:58 AM 44.8 °F 44.6 °F 99% 30.08 in 10.0 mi Calm Calm - N/A   Clear
1:58 AM 43.5 °F 43.2 °F 99% 30.09 in 10.0 mi WNW 1.2 mph - N/A   Clear
1:58 AM 42.8 °F 41.5 °F 95% 30.10 in 10.0 mi WNW 2.3 mph - N/A   Clear
2:58 AM 41.5 °F 41.4 °F 99% 30.11 in 10.0 mi Calm Calm - N/A   Clear
3:13 AM 42.8 °F 41.0 °F 93% 30.10 in 4.0 mi Calm Calm - N/A   Clear
3:23 AM 42.8 °F 42.8 °F 100% 30.11 in 10.0 mi Calm Calm - N/A   Clear
3:28 AM 42.8 °F 42.8 °F 100% 30.11 in 6.0 mi SSE 2.3 mph - N/A   Clear
3:38 AM 42.8 °F 41.0 °F 93% 30.11 in 10.0 mi SSE 2.3 mph - N/A   Clear
3:43 AM 41.0 °F 41.0 °F 100% 30.11 in 6.0 mi SSE 2.3 mph - N/A   Clear
3:58 AM 41.7 °F 41.5 °F 99% 30.12 in 9.0 mi SSE 1.2 mph - N/A   Clear
4:08 AM 41.0 °F 41.0 °F 100% 30.11 in 2.5 mi SE 2.3 mph - N/A   Clear
4:13 AM 41.0 °F 41.0 °F 100% 30.11 in 1.8 mi ESE 2.3 mph - N/A   Clear
4:18 AM 41.0 °F 41.0 °F 100% 30.12 in 1.0 mi ESE 2.3 mph - N/A   Clear
4:23 AM 41.0 °F 39.2 °F 93% 30.12 in 1.2 mi East 1.2 mph - N/A   Clear
4:28 AM 39.2 °F 39.2 °F 100% 30.12 in 6.0 mi Calm Calm - N/A   Clear
4:33 AM 41.0 °F 39.2 °F 93% 30.12 in 2.5 mi Calm Calm - N/A   Clear
4:43 AM 39.2 °F 39.2 °F 100% 30.12 in 9.0 mi Calm Calm - N/A   Clear
4:58 AM 40.1 °F 39.7 °F 99% 30.14 in 10.0 mi Calm Calm - N/A   Clear
5:03 AM 41.0 °F 39.2 °F 93% 30.13 in 6.0 mi Calm Calm - N/A   Clear
5:08 AM 41.0 °F 39.2 °F 93% 30.13 in 1.8 mi Calm Calm - N/A   Clear
5:13 AM 39.2 °F 39.2 °F 100% 30.14 in 0.8 mi Calm Calm - N/A   Clear
5:23 AM 39.2 °F 39.2 °F 100% 30.14 in 0.5 mi Calm Calm - N/A Fog Fog
5:28 AM 39.2 °F 37.4 °F 93% 30.14 in 0.2 mi Calm Calm - N/A Fog Fog
5:53 AM 39.2 °F 39.2 °F 100% 30.14 in 0.5 mi Calm Calm - N/A Fog Fog
5:58 AM 39.2 °F 39.2 °F 100% 30.15 in 0.8 mi SE 1.2 mph - N/A   Clear
6:13 AM 39.2 °F 39.2 °F 100% 30.15 in 1.0 mi Calm Calm - N/A   Clear
6:18 AM 39.2 °F 39.2 °F 100% 30.15 in 1.2 mi Calm Calm - N/A   Clear
6:23 AM 39.2 °F 39.2 °F 100% 30.15 in 0.8 mi Calm Calm - N/A   Clear
6:28 AM 39.2 °F 39.2 °F 100% 30.16 in 0.5 mi Calm Calm - N/A Fog Fog
6:38 AM 39.2 °F 39.2 °F 100% 30.16 in 0.8 mi Calm Calm - N/A   Clear
6:48 AM 39.2 °F 39.2 °F 100% 30.16 in 1.0 mi Calm Calm - N/A   Clear
6:53 AM 39.2 °F 39.2 °F 100% 30.16 in 0.5 mi Calm Calm - N/A Fog Fog
6:58 AM 38.7 °F 38.3 °F 99% 30.17 in 0.5 mi Calm Calm - N/A Fog Fog
7:03 AM 39.2 °F 37.4 °F 93% 30.17 in 0.2 mi Calm Calm - N/A Fog Fog
7:08 AM 37.4 °F 37.4 °F 100% 30.17 in 0.2 mi Calm Calm - N/A Fog Fog
7:18 AM 39.2 °F 39.2 °F 100% 30.17 in 0.5 mi Variable 1.2 mph - N/A Fog Fog
7:23 AM 39.2 °F 39.2 °F 100% 30.17 in 1.5 mi SE 1.2 mph - N/A   Clear
7:28 AM 39.2 °F 39.2 °F 100% 30.18 in 0.8 mi SSE 2.3 mph - N/A   Clear
11:58 AM 63.7 °F 43.2 °F 47% 30.22 in 10.0 mi Variable 3.5 mph - N/A   Clear
12:58 PM 66.2 °F 41.9 °F 41% 30.19 in 10.0 mi Variable 2.3 mph - N/A   Clear
1:58 PM 67.6 °F 39.9 °F 36% 30.17 in 10.0 mi East 3.5 mph - N/A   Clear
2:58 PM 68.2 °F 39.2 °F 35% 30.16 in 10.0 mi East 3.5 mph - N/A   Clear
3:58 PM 67.8 °F 38.8 °F 35% 30.17 in 10.0 mi NE 4.6 mph - N/A   Clear
4:58 PM 67.3 °F 41.2 °F 39% 30.17 in 10.0 mi ESE 4.6 mph - N/A   Clear
5:58 PM 53.8 °F 46.9 °F 78% 30.18 in 10.0 mi Calm Calm - N/A   Clear
6:58 PM 50.4 °F 46.9 °F 88% 30.21 in 10.0 mi SE 2.3 mph - N/A   Clear
7:58 PM 46.9 °F 46.4 °F 98% 30.23 in 10.0 mi SE 2.3 mph - N/A   Clear
8:58 PM 45.7 °F 45.5 °F 99% 30.23 in 10.0 mi ESE 1.2 mph - N/A   Clear
9:53 PM 42.8 °F 42.8 °F 100% 30.24 in 9.0 mi Calm Calm - N/A   Clear
9:58 PM 43.7 °F 43.3 °F 99% 30.25 in 9.0 mi Calm Calm - N/A   Clear
10:03 PM 42.8 °F 42.8 °F 100% 30.24 in 5.0 mi Calm Calm - N/A   Clear
10:13 PM 41.0 °F 41.0 °F 100% 30.24 in 2.5 mi Calm Calm - N/A   Clear
10:18 PM 41.0 °F 41.0 °F 100% 30.25 in 0.8 mi Calm Calm - N/A   Clear
10:23 PM 41.0 °F 41.0 °F 100% 30.25 in 0.5 mi Calm Calm - N/A Fog Fog
10:28 PM 41.0 °F 41.0 °F 100% 30.25 in 0.5 mi Calm Calm - N/A Fog Fog
10:33 PM 41.0 °F 41.0 °F 100% 30.25 in 0.2 mi Calm Calm - N/A Fog Fog
10:38 PM 42.8 °F 41.0 °F 93% 30.25 in 0.2 mi Calm Calm - N/A Fog Fog
10:48 PM 41.0 °F 41.0 °F 100% 30.26 in 0.5 mi Calm Calm - N/A Fog Fog
10:58 PM 39.9 °F 39.7 °F 99% 30.27 in 0.5 mi Calm Calm - N/A Fog Fog